createdAt,value
2022-09-09T00:02:25.010Z,98356.00
2022-09-09T00:05:10.582Z,98350.00
2022-09-09T00:07:44.784Z,98351.00
2022-09-09T00:10:40.536Z,98353.00
2022-09-09T00:13:50.221Z,98354.00
2022-09-09T00:16:27.191Z,98348.00
2022-09-09T00:19:31.590Z,98338.00
2022-09-09T00:22:21.851Z,98338.00
2022-09-09T00:24:55.610Z,98335.00
2022-09-09T00:27:49.647Z,98364.00
2022-09-09T00:30:25.687Z,98335.00
2022-09-09T00:33:14.045Z,98342.00
2022-09-09T00:35:55.878Z,98337.00
2022-09-09T00:38:39.044Z,98336.00
2022-09-09T00:41:43.922Z,98335.00
2022-09-09T00:44:36.518Z,98330.00
2022-09-09T00:47:45.876Z,98323.00
2022-09-09T00:50:34.758Z,98334.00
2022-09-09T00:53:18.609Z,98320.00
2022-09-09T00:56:20.281Z,98333.00
2022-09-09T00:59:11.396Z,98338.00
2022-09-09T01:01:42.729Z,98334.00
2022-09-09T01:04:32.142Z,98333.00
2022-09-09T01:07:20.041Z,98329.00
2022-09-09T01:10:02.225Z,98331.00
2022-09-09T01:12:43.119Z,98332.00
2022-09-09T01:15:24.206Z,98324.00
2022-09-09T01:18:04.796Z,98320.00
2022-09-09T01:21:03.440Z,98321.00
2022-09-09T01:24:09.845Z,98326.00
2022-09-09T01:26:45.078Z,98327.00
2022-09-09T01:29:19.032Z,98328.00
2022-09-09T01:32:03.027Z,98335.00
2022-09-09T01:34:40.083Z,98337.00
2022-09-09T01:37:13.330Z,98343.00
2022-09-09T01:39:46.204Z,98347.00
2022-09-09T01:42:18.569Z,98341.00
2022-09-09T01:44:49.465Z,98335.00
2022-09-09T01:47:20.388Z,98348.00
2022-09-09T01:49:51.310Z,98336.00
2022-09-09T01:52:22.515Z,98357.00
2022-09-09T01:54:53.438Z,98328.00
2022-09-09T01:57:40.659Z,98335.00
2022-09-09T02:00:14.029Z,98329.00
2022-09-09T02:03:01.957Z,98325.00
2022-09-09T02:06:06.393Z,98330.00
2022-09-09T02:08:48.443Z,98329.00
2022-09-09T02:11:23.358Z,98315.00
2022-09-09T02:14:23.246Z,98326.00
2022-09-09T02:17:19.591Z,98337.00
2022-09-09T02:19:59.856Z,98338.00
2022-09-09T02:22:33.431Z,98346.00
2022-09-09T02:25:08.560Z,98343.00
2022-09-09T02:27:41.610Z,98344.00
2022-09-09T02:30:13.704Z,98336.00
2022-09-09T02:32:47.465Z,98335.00
2022-09-09T02:35:25.353Z,98328.00
2022-09-09T02:38:02.423Z,98339.00
2022-09-09T02:40:33.384Z,98349.00
2022-09-09T02:43:04.494Z,98344.00
2022-09-09T02:45:52.054Z,98334.00
2022-09-09T02:48:36.009Z,98335.00
2022-09-09T02:52:04.534Z,98335.00
2022-09-09T02:54:40.016Z,98342.00
2022-09-09T02:57:22.395Z,98334.00
2022-09-09T02:59:53.812Z,98327.00
2022-09-09T03:02:25.485Z,98329.00
2022-09-09T03:04:56.468Z,98328.00
2022-09-09T03:07:28.417Z,98324.00
2022-09-09T03:09:59.748Z,98318.00
2022-09-09T03:12:30.604Z,98327.00
2022-09-09T03:15:01.487Z,98311.00
2022-09-09T03:17:32.400Z,98315.00
2022-09-09T03:20:06.768Z,98316.00
2022-09-09T03:22:37.663Z,98325.00
2022-09-09T03:25:08.989Z,98334.00
2022-09-09T03:27:39.965Z,98349.00
2022-09-09T03:30:11.809Z,98344.00
2022-09-09T03:32:47.090Z,98337.00
2022-09-09T03:35:20.378Z,98327.00
2022-09-09T03:37:51.305Z,98318.00
2022-09-09T03:40:22.498Z,98318.00
2022-09-09T03:42:53.409Z,98322.00
2022-09-09T03:45:25.459Z,98319.00
2022-09-09T03:47:58.124Z,98333.00
2022-09-09T03:50:29.061Z,98333.00
2022-09-09T03:52:59.914Z,98344.00
2022-09-09T03:55:30.762Z,98334.00
2022-09-09T03:58:01.606Z,98327.00
2022-09-09T04:00:33.207Z,98329.00
2022-09-09T04:03:04.099Z,98326.00
2022-09-09T04:05:35.095Z,98332.00
2022-09-09T04:08:07.061Z,98356.00
2022-09-09T04:10:38.260Z,98333.00
2022-09-09T04:13:09.145Z,98337.00
2022-09-09T04:15:40.752Z,98335.00
2022-09-09T04:18:15.068Z,98358.00
2022-09-09T04:20:51.624Z,98340.00
2022-09-09T04:23:22.541Z,98337.00
2022-09-09T04:25:57.421Z,98340.00
2022-09-09T04:28:32.035Z,98351.00
2022-09-09T04:31:14.561Z,98356.00
2022-09-09T04:33:45.766Z,98354.00
2022-09-09T04:36:19.583Z,98351.00
2022-09-09T04:38:50.669Z,98343.00
2022-09-09T04:41:22.026Z,98350.00
2022-09-09T04:43:54.518Z,98354.00
2022-09-09T04:46:26.224Z,98369.00
2022-09-09T04:48:57.101Z,98354.00
2022-09-09T04:51:27.992Z,98354.00
2022-09-09T04:53:59.182Z,98340.00
2022-09-09T04:56:30.055Z,98346.00
2022-09-09T04:59:01.218Z,98356.00
2022-09-09T05:01:33.354Z,98347.00
2022-09-09T05:04:04.385Z,98352.00
2022-09-09T05:06:37.121Z,98349.00
2022-09-09T05:09:08.102Z,98362.00
2022-09-09T05:11:39.181Z,98361.00
2022-09-09T05:14:12.464Z,98365.00
2022-09-09T05:16:45.387Z,98376.00
2022-09-09T05:19:16.653Z,98370.00
2022-09-09T05:21:47.610Z,98367.00
2022-09-09T05:24:18.609Z,98374.00
2022-09-09T05:26:49.601Z,98370.00
2022-09-09T05:29:20.481Z,98391.00
2022-09-09T05:31:51.386Z,98373.00
2022-09-09T05:34:22.358Z,98369.00
2022-09-09T05:36:53.700Z,98380.00
2022-09-09T05:39:24.576Z,98374.00
2022-09-09T05:41:56.517Z,98379.00
2022-09-09T05:44:28.681Z,98378.00
2022-09-09T05:46:59.625Z,98369.00
2022-09-09T05:49:30.500Z,98373.00
2022-09-09T05:52:07.561Z,98376.00
2022-09-09T05:54:38.900Z,98385.00
2022-09-09T05:57:10.226Z,98379.00
2022-09-09T05:59:41.367Z,98378.00
2022-09-09T06:02:13.555Z,98377.00
2022-09-09T06:04:44.533Z,98383.00
2022-09-09T06:07:15.679Z,98387.00
2022-09-09T06:09:46.558Z,98399.00
2022-09-09T06:12:17.468Z,98386.00
2022-09-09T06:14:48.393Z,98391.00
2022-09-09T06:17:19.217Z,98387.00
2022-09-09T06:19:50.178Z,98384.00
2022-09-09T06:22:21.799Z,98383.00
2022-09-09T06:24:52.818Z,98385.00
2022-09-09T06:27:23.799Z,98383.00
2022-09-09T06:29:54.596Z,98391.00
2022-09-09T06:32:25.990Z,98407.00
2022-09-09T06:34:56.826Z,98414.00
2022-09-09T06:37:28.461Z,98384.00
2022-09-09T06:39:59.340Z,98386.00
2022-09-09T06:42:30.267Z,98386.00
2022-09-09T06:45:01.122Z,98391.00
2022-09-09T06:47:32.014Z,98385.00
2022-09-09T06:50:02.982Z,98382.00
2022-09-09T06:52:34.701Z,98397.00
2022-09-09T06:55:06.254Z,98394.00
2022-09-09T06:57:37.881Z,98393.00
2022-09-09T07:00:09.672Z,98402.00
2022-09-09T07:02:42.130Z,98409.00
2022-09-09T07:05:13.074Z,98397.00
2022-09-09T07:07:44.064Z,98387.00
2022-09-09T07:10:14.969Z,98391.00
2022-09-09T07:12:45.838Z,98390.00
2022-09-09T07:15:16.773Z,98404.00
2022-09-09T07:17:47.680Z,98392.00
2022-09-09T07:20:18.492Z,98394.00
2022-09-09T07:22:49.352Z,98389.00
2022-09-09T07:25:21.912Z,98401.00
2022-09-09T07:27:57.859Z,98397.00
2022-09-09T07:30:29.904Z,98393.00
2022-09-09T07:33:00.771Z,98390.00
2022-09-09T07:35:31.646Z,98388.00
2022-09-09T07:38:02.850Z,98389.00
2022-09-09T07:40:35.004Z,98397.00
2022-09-09T07:43:05.850Z,98403.00
2022-09-09T07:45:36.954Z,98386.00
2022-09-09T07:48:07.825Z,98388.00
2022-09-09T07:50:38.785Z,98393.00
2022-09-09T07:53:09.656Z,98389.00
2022-09-09T07:55:40.487Z,98393.00
2022-09-09T07:58:11.394Z,98423.00
2022-09-09T08:00:44.600Z,98404.00
2022-09-09T08:03:15.540Z,98402.00
2022-09-09T08:05:46.523Z,98392.00
2022-09-09T08:08:17.678Z,98391.00
2022-09-09T08:10:48.543Z,98409.00
2022-09-09T08:13:19.623Z,98404.00
2022-09-09T08:15:51.312Z,98407.00
2022-09-09T08:18:23.107Z,98406.00
2022-09-09T08:20:54.437Z,98399.00
2022-09-09T08:23:26.038Z,98404.00
2022-09-09T08:26:04.610Z,98398.00
2022-09-09T08:28:35.534Z,98400.00
2022-09-09T08:31:16.093Z,98408.00
2022-09-09T08:33:47.082Z,98418.00
2022-09-09T08:36:22.674Z,98412.00
2022-09-09T08:38:56.837Z,98407.00
2022-09-09T08:42:01.643Z,98419.00
2022-09-09T08:44:35.568Z,98402.00
2022-09-09T08:47:42.051Z,98401.00
2022-09-09T08:50:30.948Z,98401.00
2022-09-09T08:53:21.518Z,98397.00
2022-09-09T08:55:56.424Z,98403.00
2022-09-09T08:58:33.792Z,98400.00
2022-09-09T09:01:10.892Z,98405.00
2022-09-09T09:04:19.064Z,98420.00
2022-09-09T09:07:17.741Z,98408.00
2022-09-09T09:10:42.311Z,98395.00
2022-09-09T09:13:28.254Z,98409.00
2022-09-09T09:16:15.845Z,98405.00
2022-09-09T09:18:47.163Z,98408.00
2022-09-09T09:21:29.991Z,98400.00
2022-09-09T09:24:02.778Z,98408.00
2022-09-09T09:26:36.313Z,98407.00
2022-09-09T09:29:19.853Z,98399.00
2022-09-09T09:31:55.906Z,98403.00
2022-09-09T09:34:26.849Z,98421.00
2022-09-09T09:37:02.747Z,98417.00
2022-09-09T09:42:30.366Z,98419.00
2022-09-09T09:45:24.999Z,98415.00
2022-09-09T09:48:22.636Z,98417.00
2022-09-09T09:51:01.517Z,98405.00
2022-09-09T09:53:35.489Z,98394.00
2022-09-09T09:56:12.734Z,98387.00
2022-09-09T09:58:46.750Z,98390.00
2022-09-09T10:01:34.347Z,98390.00
2022-09-09T10:04:24.657Z,98381.00
2022-09-09T10:06:56.366Z,98395.00
2022-09-09T10:09:35.323Z,98368.00
2022-09-09T10:12:21.324Z,98376.00
2022-09-09T10:15:01.234Z,98372.00
2022-09-09T10:17:52.989Z,98374.00
2022-09-09T10:20:57.603Z,98370.00
2022-09-09T10:24:09.392Z,98370.00
2022-09-09T10:27:17.796Z,98365.00
2022-09-09T10:30:11.055Z,98357.00
2022-09-09T10:33:04.282Z,98360.00
2022-09-09T10:36:14.691Z,98362.00
2022-09-09T10:39:19.696Z,98369.00
2022-09-09T10:42:13.727Z,98366.00
2022-09-09T10:45:16.860Z,98368.00
2022-09-09T10:48:38.457Z,98366.00
2022-09-09T10:51:27.512Z,98370.00
2022-09-09T10:54:23.958Z,98358.00
2022-09-09T10:57:12.218Z,98364.00
2022-09-09T10:59:49.773Z,98360.00
2022-09-09T11:02:29.174Z,98361.00
2022-09-09T11:05:20.400Z,98364.00
2022-09-09T11:08:05.285Z,98356.00
2022-09-09T11:11:04.635Z,98353.00
2022-09-09T11:13:41.186Z,98353.00
2022-09-09T11:16:51.346Z,98342.00
2022-09-09T11:19:43.790Z,98377.00
2022-09-09T11:22:17.702Z,98389.00
2022-09-09T11:25:16.527Z,98388.00
2022-09-09T11:27:56.226Z,98400.00
2022-09-09T11:30:56.966Z,98413.00
2022-09-09T11:34:10.848Z,98404.00
2022-09-09T11:37:07.905Z,98401.00
2022-09-09T11:40:07.414Z,98408.00
2022-09-09T11:42:38.454Z,98408.00
2022-09-09T11:45:21.473Z,98411.00
2022-09-09T11:47:58.594Z,98419.00
2022-09-09T11:50:38.874Z,98420.00
2022-09-09T11:53:23.985Z,98420.00
2022-09-09T11:56:06.812Z,98410.00
2022-09-09T11:58:46.885Z,98407.00
2022-09-09T12:01:45.212Z,98409.00
2022-09-09T12:04:25.649Z,98408.00
2022-09-09T12:07:04.627Z,98392.00
2022-09-09T12:10:32.547Z,98393.00
2022-09-09T12:13:29.966Z,98399.00
2022-09-09T12:16:03.531Z,98388.00
2022-09-09T12:18:40.513Z,98396.00
2022-09-09T12:21:34.607Z,98390.00
2022-09-09T12:24:13.042Z,98388.00
2022-09-09T12:27:20.831Z,98390.00
2022-09-09T12:30:08.523Z,98390.00
2022-09-09T12:32:40.323Z,98376.00
2022-09-09T12:35:21.042Z,98376.00
2022-09-09T12:38:03.463Z,98370.00
2022-09-09T12:40:40.151Z,98371.00
2022-09-09T12:43:22.259Z,98377.00
2022-09-09T12:46:04.561Z,98373.00
2022-09-09T12:48:41.333Z,98365.00
2022-09-09T12:51:39.221Z,98361.00
2022-09-09T12:54:16.263Z,98366.00
2022-09-09T12:56:49.225Z,98351.00
2022-09-09T12:59:28.090Z,98354.00
2022-09-09T13:02:00.367Z,98363.00
2022-09-09T13:04:31.287Z,98345.00
2022-09-09T13:07:13.033Z,98342.00
2022-09-09T13:09:49.646Z,98349.00
2022-09-09T13:12:23.679Z,98339.00
2022-09-09T13:14:57.371Z,98340.00
2022-09-09T13:17:32.079Z,98338.00
2022-09-09T13:20:03.632Z,98339.00
2022-09-09T13:22:41.595Z,98332.00
2022-09-09T13:25:12.803Z,98332.00
2022-09-09T13:27:58.584Z,98331.00
2022-09-09T13:30:41.173Z,98343.00
2022-09-09T13:33:18.487Z,98336.00
2022-09-09T13:35:55.651Z,98338.00
2022-09-09T13:38:28.855Z,98331.00
2022-09-09T13:41:11.671Z,98326.00
2022-09-09T13:43:50.641Z,98309.00
2022-09-09T13:46:41.699Z,98321.00
2022-09-09T13:49:12.562Z,98311.00
2022-09-09T13:51:51.582Z,98311.00
2022-09-09T13:54:23.330Z,98301.00
2022-09-09T13:56:54.836Z,98311.00
2022-09-09T13:59:42.460Z,98306.00
2022-09-09T14:02:18.285Z,98300.00
2022-09-09T14:04:51.746Z,98298.00
2022-09-09T14:07:22.949Z,98323.00
2022-09-09T14:09:53.784Z,98311.00
2022-09-09T14:12:25.364Z,98314.00
2022-09-09T14:14:56.209Z,98312.00
2022-09-09T14:17:30.391Z,98311.00
2022-09-09T14:20:01.268Z,98306.00
2022-09-09T14:22:32.166Z,98310.00
2022-09-09T14:25:03.696Z,98291.00
2022-09-09T14:27:34.742Z,98304.00
2022-09-09T14:30:06.585Z,98304.00
2022-09-09T14:32:37.485Z,98298.00
2022-09-09T14:35:09.166Z,98348.00
2022-09-09T14:37:40.445Z,98315.00
2022-09-09T14:40:12.356Z,98307.00
2022-09-09T14:42:43.261Z,98312.00
2022-09-09T14:45:14.237Z,98305.00
2022-09-09T14:47:45.137Z,98320.00
2022-09-09T14:50:16.015Z,98303.00
2022-09-09T14:52:47.800Z,98310.00
2022-09-09T14:55:18.713Z,98305.00
2022-09-09T14:57:50.117Z,98301.00
2022-09-09T15:00:21.116Z,98310.00
2022-09-09T15:02:55.986Z,98305.00
2022-09-09T15:05:26.890Z,98306.00
2022-09-09T15:07:58.574Z,98317.00
2022-09-09T15:10:32.440Z,98313.00
2022-09-09T15:13:03.324Z,98316.00
2022-09-09T15:15:35.813Z,98328.00
2022-09-09T15:18:06.734Z,98325.00
2022-09-09T15:20:40.282Z,98309.00
2022-09-09T15:23:12.004Z,98314.00
2022-09-09T15:25:57.460Z,98317.00
2022-09-09T15:28:28.458Z,98326.00
2022-09-09T15:31:00.802Z,98313.00
2022-09-09T15:33:32.119Z,98312.00
2022-09-09T15:36:14.069Z,98325.00
2022-09-09T15:38:45.614Z,98300.00
2022-09-09T15:41:18.397Z,98314.00
2022-09-09T15:43:52.838Z,98328.00
2022-09-09T15:46:36.975Z,98314.00
2022-09-09T15:49:16.228Z,98316.00
2022-09-09T15:51:52.350Z,98316.00
2022-09-09T15:54:26.115Z,98329.00
2022-09-09T15:57:00.863Z,98332.00
2022-09-09T15:59:33.170Z,98331.00
2022-09-09T16:02:06.184Z,98323.00
2022-09-09T16:04:37.086Z,98326.00
2022-09-09T16:07:07.966Z,98309.00
2022-09-09T16:09:38.888Z,98332.00
2022-09-09T16:12:14.094Z,98317.00
2022-09-09T16:14:46.362Z,98329.00
2022-09-09T16:17:17.624Z,98357.00
2022-09-09T16:19:48.495Z,98336.00
2022-09-09T16:22:19.327Z,98346.00
2022-09-09T16:24:50.795Z,98343.00
2022-09-09T16:27:21.759Z,98345.00
2022-09-09T16:29:52.653Z,98345.00
2022-09-09T16:32:23.619Z,98347.00
2022-09-09T16:34:54.476Z,98359.00
2022-09-09T16:37:25.321Z,98380.00
2022-09-09T16:39:56.186Z,98381.00
2022-09-09T16:42:27.079Z,98391.00
2022-09-09T16:44:57.947Z,98392.00
2022-09-09T16:47:29.172Z,98390.00
2022-09-09T16:50:00.578Z,98397.00
2022-09-09T16:52:31.448Z,98396.00
2022-09-09T16:55:02.284Z,98400.00
2022-09-09T16:57:33.128Z,98405.00
2022-09-09T17:00:06.964Z,98407.00
2022-09-09T17:02:37.874Z,98412.00
2022-09-09T17:05:08.988Z,98406.00
2022-09-09T17:07:39.881Z,98405.00
2022-09-09T17:10:10.742Z,98408.00
2022-09-09T17:12:42.550Z,98404.00
2022-09-09T17:15:13.416Z,98407.00
2022-09-09T17:17:46.186Z,98395.00
2022-09-09T17:20:17.701Z,98396.00
2022-09-09T17:22:49.931Z,98398.00
2022-09-09T17:25:23.412Z,98389.00
2022-09-09T17:27:54.530Z,98399.00
2022-09-09T17:30:25.550Z,98393.00
2022-09-09T17:32:56.474Z,98394.00
2022-09-09T17:35:28.242Z,98388.00
2022-09-09T17:37:59.208Z,98394.00
2022-09-09T17:40:30.162Z,98394.00
2022-09-09T17:43:02.390Z,98400.00
2022-09-09T17:45:33.390Z,98398.00
2022-09-09T17:48:05.125Z,98407.00
2022-09-09T17:50:35.986Z,98408.00
2022-09-09T17:53:06.881Z,98413.00
2022-09-09T17:55:37.730Z,98422.00
2022-09-09T17:58:08.807Z,98424.00
2022-09-09T18:00:39.680Z,98427.00
2022-09-09T18:03:10.662Z,98421.00
2022-09-09T18:05:41.564Z,98421.00
2022-09-09T18:08:13.458Z,98421.00
2022-09-09T18:10:55.770Z,98413.00
2022-09-09T18:13:26.693Z,98418.00
2022-09-09T18:15:58.469Z,98422.00
2022-09-09T18:18:30.014Z,98434.00
2022-09-09T18:21:06.513Z,98434.00
2022-09-09T18:23:42.951Z,98435.00
2022-09-09T18:26:20.804Z,98435.00
2022-09-09T18:29:01.408Z,98441.00
2022-09-09T18:31:34.314Z,98446.00
2022-09-09T18:34:09.991Z,98455.00
2022-09-09T18:36:48.119Z,98459.00
2022-09-09T18:39:21.359Z,98449.00
2022-09-09T18:41:55.676Z,98451.00
2022-09-09T18:44:30.441Z,98460.00
2022-09-09T18:47:03.623Z,98465.00
2022-09-09T18:49:34.525Z,98460.00
2022-09-09T18:52:08.630Z,98461.00
2022-09-09T18:54:45.957Z,98475.00
2022-09-09T18:57:17.643Z,98473.00
2022-09-09T18:59:49.222Z,98474.00
2022-09-09T19:02:21.672Z,98462.00
2022-09-09T19:04:53.132Z,98472.00
2022-09-09T19:07:24.064Z,98463.00
2022-09-09T19:09:54.903Z,98473.00
2022-09-09T19:12:26.093Z,98460.00
2022-09-09T19:14:57.006Z,98463.00
2022-09-09T19:17:28.788Z,98467.00
2022-09-09T19:19:59.778Z,98464.00
2022-09-09T19:22:30.975Z,98462.00
2022-09-09T19:25:03.609Z,98462.00
2022-09-09T19:27:34.873Z,98470.00
2022-09-09T19:30:06.675Z,98474.00
2022-09-09T19:32:52.865Z,98475.00
2022-09-09T19:35:24.674Z,98489.00
2022-09-09T19:37:55.636Z,98488.00
2022-09-09T19:40:26.983Z,98484.00
2022-09-09T19:42:57.923Z,98487.00
2022-09-09T19:45:28.770Z,98504.00
2022-09-09T19:47:59.777Z,98483.00
2022-09-09T19:50:30.613Z,98491.00
2022-09-09T19:53:01.500Z,98507.00
2022-09-09T19:55:32.316Z,98486.00
2022-09-09T19:58:04.308Z,98495.00
2022-09-09T20:00:39.564Z,98497.00
2022-09-09T20:03:19.050Z,98496.00
2022-09-09T20:05:50.841Z,98496.00
2022-09-09T20:08:21.808Z,98499.00
2022-09-09T20:10:54.456Z,98503.00
2022-09-09T20:13:25.502Z,98497.00
2022-09-09T20:16:13.399Z,98504.00
2022-09-09T20:18:52.521Z,98506.00
2022-09-09T20:21:27.348Z,98502.00
2022-09-09T20:24:02.537Z,98505.00
2022-09-09T20:26:36.356Z,98508.00
2022-09-09T20:29:15.827Z,98511.00
2022-09-09T20:31:48.501Z,98510.00
2022-09-09T20:34:25.794Z,98505.00
2022-09-09T20:36:59.233Z,98519.00
2022-09-09T20:39:30.354Z,98509.00
2022-09-09T20:42:02.294Z,98530.00
2022-09-09T20:44:33.180Z,98514.00
2022-09-09T20:47:06.662Z,98525.00
2022-09-09T20:49:37.617Z,98549.00
2022-09-09T20:52:11.073Z,98519.00
2022-09-09T20:54:42.187Z,98534.00
2022-09-09T20:57:14.613Z,98528.00
2022-09-09T20:59:45.985Z,98522.00
2022-09-09T21:02:18.387Z,98531.00
2022-09-09T21:04:49.305Z,98536.00
2022-09-09T21:07:20.187Z,98531.00
2022-09-09T21:09:51.024Z,98538.00
2022-09-09T21:12:22.786Z,98527.00
2022-09-09T21:14:53.630Z,98523.00
2022-09-09T21:17:24.578Z,98549.00
2022-09-09T21:19:57.434Z,98544.00
2022-09-09T21:22:29.618Z,98521.00
2022-09-09T21:25:00.464Z,98521.00
2022-09-09T21:27:31.320Z,98519.00
2022-09-09T21:30:03.513Z,98520.00
2022-09-09T21:32:34.368Z,98523.00
2022-09-09T21:35:06.992Z,98520.00
2022-09-09T21:37:37.913Z,98553.00
2022-09-09T21:40:09.588Z,98523.00
2022-09-09T21:42:40.570Z,98527.00
2022-09-09T21:45:11.495Z,98525.00
2022-09-09T21:47:46.848Z,98546.00
2022-09-09T21:50:18.027Z,98525.00
2022-09-09T21:52:49.696Z,98526.00
2022-09-09T21:55:20.647Z,98527.00
2022-09-09T21:57:51.778Z,98526.00
2022-09-09T22:00:24.201Z,98531.00
2022-09-09T22:02:55.231Z,98528.00
2022-09-09T22:05:27.287Z,98524.00
2022-09-09T22:07:58.784Z,98527.00
2022-09-09T22:10:29.628Z,98536.00
2022-09-09T22:13:00.488Z,98518.00
2022-09-09T22:15:32.592Z,98518.00
2022-09-09T22:18:04.862Z,98512.00
2022-09-09T22:20:42.643Z,98520.00
2022-09-09T22:23:14.307Z,98519.00
2022-09-09T22:25:45.246Z,98521.00
2022-09-09T22:28:16.682Z,98530.00
2022-09-09T22:30:47.692Z,98525.00
2022-09-09T22:33:19.345Z,98545.00
2022-09-09T22:35:50.312Z,98526.00
2022-09-09T22:38:22.376Z,98525.00
2022-09-09T22:40:53.504Z,98525.00
2022-09-09T22:43:24.381Z,98534.00
2022-09-09T22:45:55.346Z,98527.00
2022-09-09T22:48:26.202Z,98535.00
2022-09-09T22:51:05.688Z,98540.00
2022-09-09T22:53:37.624Z,98544.00
2022-09-09T22:56:17.202Z,98543.00
2022-09-09T22:58:55.637Z,98550.00
2022-09-09T23:01:27.986Z,98555.00
2022-09-09T23:03:59.407Z,98561.00
2022-09-09T23:06:31.799Z,98574.00
2022-09-09T23:09:03.652Z,98566.00
2022-09-09T23:11:37.066Z,98584.00
2022-09-09T23:14:10.574Z,98581.00
2022-09-09T23:16:45.188Z,98587.00
2022-09-09T23:19:17.343Z,98587.00
2022-09-09T23:21:48.386Z,98593.00
2022-09-09T23:24:19.230Z,98602.00
2022-09-09T23:26:50.467Z,98589.00
2022-09-09T23:29:21.597Z,98584.00
2022-09-09T23:31:52.481Z,98587.00
2022-09-09T23:34:23.333Z,98591.00
2022-09-09T23:36:54.222Z,98584.00
2022-09-09T23:39:25.092Z,98579.00
2022-09-09T23:41:56.667Z,98574.00
2022-09-09T23:44:27.652Z,98572.00
2022-09-09T23:46:58.521Z,98568.00
2022-09-09T23:49:29.371Z,98572.00
2022-09-09T23:52:03.619Z,98576.00
2022-09-09T23:54:35.186Z,98581.00
2022-09-09T23:57:06.085Z,98575.00
2022-09-09T23:59:36.913Z,98572.00
